Аэропорт: Жезказган. Жезказган

ICAO: UAKD

METAR:
Информация по данной станции не доступна
METAR:
2019-09-21 14:00:00
TAF UAKD 211400Z 2115/2124 10005MPS 9999 NSC TEMPO 2115/2121 VRB02MPS TEMPO 2121/2124 VRB02MPS